Time;durP1;ratioP1;P1;durP2;ratioP2;P2;SDS_P1;SDS_P2;PMS_P1;PMS_P2;Temp;Humidity;BMP_temperature;BMP_pressure;BME280_temperature;BME280_humidity;BME280_pressure;Samples;Min_cycle;Max_cycle;Signal;HPM_P1;HPM_P2
2021/09/28 00:00:39;;;;;;;11.33;6.40;;;12.90;81.90;;;;;;1884664;75;21143;-51
2021/09/28 00:03:08;;;;;;;9.95;5.97;;;12.90;81.90;;;;;;1884633;75;21076;-47
2021/09/28 00:05:38;;;;;;;9.10;5.50;;;12.90;81.80;;;;;;1884684;76;21026;-47
2021/09/28 00:08:08;;;;;;;12.95;6.08;;;12.80;81.80;;;;;;1884773;76;21026;-50
2021/09/28 00:10:37;;;;;;;7.83;4.72;;;12.90;82.00;;;;;;1884640;76;21096;-48
2021/09/28 00:13:07;;;;;;;12.05;5.60;;;12.90;82.00;;;;;;1884970;76;21152;-47
2021/09/28 00:15:37;;;;;;;9.30;6.08;;;12.90;82.20;;;;;;1884624;76;21112;-49
2021/09/28 00:18:07;;;;;;;11.63;6.10;;;12.90;82.20;;;;;;1884835;76;21082;-50
2021/09/28 00:20:39;;;;;;;11.00;5.72;;;12.90;82.20;;;;;;1884773;76;21085;-48
2021/09/28 00:23:08;;;;;;;10.43;5.22;;;12.80;82.60;;;;;;1884719;75;21038;-51
2021/09/28 00:25:38;;;;;;;11.18;6.35;;;12.80;82.00;;;;;;1891611;75;21061;-49
2021/09/28 00:28:07;;;;;;;13.93;6.47;;;12.80;82.10;;;;;;1893853;76;21026;-48
2021/09/28 00:30:37;;;;;;;8.83;5.53;;;12.80;82.10;;;;;;1893925;76;21014;-50
2021/09/28 00:33:06;;;;;;;12.55;5.70;;;12.70;82.20;;;;;;1894010;76;21020;-49
2021/09/28 00:35:36;;;;;;;8.05;5.87;;;12.70;82.20;;;;;;1893939;76;21046;-47
2021/09/28 00:38:06;;;;;;;9.13;5.90;;;12.70;82.40;;;;;;1893928;76;21092;-47
2021/09/28 00:40:35;;;;;;;11.53;6.03;;;12.70;82.40;;;;;;1893888;76;21022;-50
2021/09/28 00:43:05;;;;;;;11.20;6.12;;;12.70;82.20;;;;;;1893921;76;21092;-49
2021/09/28 00:45:34;;;;;;;8.33;5.92;;;12.70;82.30;;;;;;1893917;76;21159;-48
2021/09/28 00:48:04;;;;;;;10.13;6.33;;;12.60;82.40;;;;;;1894009;76;21030;-48
2021/09/28 00:50:34;;;;;;;11.05;6.30;;;12.60;82.50;;;;;;1893989;76;21074;-50
2021/09/28 00:53:04;;;;;;;11.53;7.37;;;12.60;82.40;;;;;;1893958;75;21088;-48
2021/09/28 00:55:33;;;;;;;12.95;6.08;;;12.60;82.40;;;;;;1893959;74;21026;-50
2021/09/28 00:58:08;;;;;;;11.48;6.72;;;12.60;82.60;;;;;;1894100;76;21030;-50
2021/09/28 01:00:34;;;;;;;8.55;6.05;;;12.60;82.70;;;;;;1893779;75;21030;-49
2021/09/28 01:03:05;;;;;;;8.25;6.12;;;12.60;82.70;;;;;;1894056;75;21087;-47
2021/09/28 01:05:34;;;;;;;11.50;6.30;;;12.50;82.70;;;;;;1893921;76;21026;-48
2021/09/28 01:08:04;;;;;;;13.05;6.30;;;12.50;82.80;;;;;;1893962;76;21022;-48
2021/09/28 01:10:33;;;;;;;11.43;6.08;;;12.50;82.60;;;;;;1893977;76;21088;-47
2021/09/28 01:13:03;;;;;;;8.20;5.35;;;12.50;82.60;;;;;;1894070;76;21026;-50
2021/09/28 01:15:32;;;;;;;7.92;6.08;;;12.40;82.70;;;;;;1894188;76;21022;-49
2021/09/28 01:18:02;;;;;;;10.58;6.10;;;12.40;82.80;;;;;;1894079;74;21034;-48
2021/09/28 01:20:32;;;;;;;7.85;5.65;;;12.40;82.90;;;;;;1894073;76;21065;-49
2021/09/28 01:23:02;;;;;;;13.00;6.50;;;12.40;83.00;;;;;;1894010;75;21538;-49
2021/09/28 01:25:31;;;;;;;7.42;4.95;;;12.40;83.20;;;;;;1894054;75;21049;-46
2021/09/28 01:28:03;;;;;;;9.13;5.20;;;12.40;83.30;;;;;;1893949;76;21135;-48
2021/09/28 01:30:32;;;;;;;11.97;6.28;;;12.40;83.40;;;;;;1893997;76;21046;-47
2021/09/28 01:33:01;;;;;;;9.95;5.85;;;12.40;83.30;;;;;;1894130;76;21051;-48
2021/09/28 01:35:31;;;;;;;11.93;6.17;;;12.40;83.20;;;;;;1894151;76;21038;-47
2021/09/28 01:38:01;;;;;;;13.38;5.80;;;12.50;83.30;;;;;;1894117;76;21127;-48
2021/09/28 01:40:30;;;;;;;8.73;5.60;;;12.50;83.20;;;;;;1894100;76;21041;-51
2021/09/28 01:43:10;;;;;;;10.00;5.67;;;12.40;83.20;;;;;;1894205;76;21046;-47
2021/09/28 01:45:41;;;;;;;10.90;5.47;;;12.40;83.40;;;;;;1858242;76;21085;-50
2021/09/28 01:48:10;;;;;;;12.00;6.05;;;12.30;83.40;;;;;;1858242;77;21064;-50
2021/09/28 01:50:40;;;;;;;12.28;6.42;;;12.30;83.40;;;;;;1857974;77;21084;-50
2021/09/28 01:53:09;;;;;;;10.68;6.30;;;12.30;83.50;;;;;;1858098;76;21057;-50
2021/09/28 01:55:38;;;;;;;8.00;5.58;;;12.40;83.30;;;;;;1858013;77;21107;-50
2021/09/28 01:58:08;;;;;;;13.55;6.62;;;12.30;83.40;;;;;;1857972;76;21013;-49
2021/09/28 02:00:37;;;;;;;15.58;7.42;;;12.20;83.50;;;;;;1857990;77;21032;-47
2021/09/28 02:03:07;;;;;;;15.05;6.55;;;12.20;83.20;;;;;;1900338;75;21046;-46
2021/09/28 02:05:36;;;;;;;17.20;7.33;;;12.10;82.30;;;;;;1858010;76;21009;-47
2021/09/28 02:08:06;;;;;;;11.35;6.72;;;12.00;82.10;;;;;;1857938;76;21116;-48
2021/09/28 02:10:35;;;;;;;11.20;6.00;;;11.80;82.30;;;;;;1900271;74;21030;-47
2021/09/28 02:13:05;;;;;;;11.75;6.70;;;11.70;83.30;;;;;;1858112;76;21194;-48
2021/09/28 02:15:34;;;;;;;12.88;7.00;;;11.60;83.50;;;;;;1858104;76;21095;-50
2021/09/28 02:18:04;;;;;;;12.80;7.55;;;11.60;83.40;;;;;;1900302;75;21096;-49
2021/09/28 02:20:34;;;;;;;14.35;7.10;;;11.60;83.90;;;;;;1858066;77;21041;-48
2021/09/28 02:23:04;;;;;;;12.58;7.20;;;11.50;84.30;;;;;;1858053;76;21029;-49
2021/09/28 02:25:33;;;;;;;10.30;7.87;;;11.60;84.30;;;;;;1900250;75;21069;-47
2021/09/28 02:28:03;;;;;;;12.18;6.75;;;11.70;84.50;;;;;;1857924;76;21029;-50
2021/09/28 02:30:32;;;;;;;10.85;6.70;;;11.70;83.60;;;;;;1900145;75;21091;-49
2021/09/28 02:33:02;;;;;;;15.78;7.58;;;11.70;83.90;;;;;;1858044;77;21010;-49
2021/09/28 02:35:31;;;;;;;10.88;7.65;;;11.70;84.00;;;;;;1900352;75;21097;-50
2021/09/28 02:38:01;;;;;;;11.70;7.40;;;11.70;83.80;;;;;;1858234;76;21057;-47
2021/09/28 02:40:30;;;;;;;12.07;7.03;;;11.70;83.80;;;;;;1900267;75;21077;-49
2021/09/28 02:43:01;;;;;;;12.10;7.67;;;11.70;84.00;;;;;;1858150;76;21044;-48
2021/09/28 02:45:30;;;;;;;11.12;7.05;;;11.60;84.10;;;;;;1900311;75;21065;-51
2021/09/28 02:47:59;;;;;;;9.25;7.22;;;11.60;83.80;;;;;;1858127;76;21127;-50
2021/09/28 02:50:33;;;;;;;13.85;6.60;;;11.50;83.60;;;;;;1857945;76;21107;-50
2021/09/28 02:53:00;;;;;;;14.05;7.10;;;11.40;83.40;;;;;;1857691;76;21029;-50
2021/09/28 02:55:29;;;;;;;9.98;6.67;;;11.30;83.40;;;;;;1900291;75;21177;-48
2021/09/28 02:57:58;;;;;;;10.63;6.78;;;11.30;84.00;;;;;;1858082;76;21111;-50
2021/09/28 03:00:28;;;;;;;11.93;6.22;;;11.30;84.00;;;;;;1900211;75;21099;-48
2021/09/28 03:02:57;;;;;;;13.55;6.15;;;11.20;84.00;;;;;;1858119;77;21025;-50
2021/09/28 03:05:27;;;;;;;9.75;5.72;;;11.20;84.00;;;;;;1858074;77;21025;-48
2021/09/28 03:07:56;;;;;;;10.40;6.10;;;11.20;84.10;;;;;;1858060;76;21076;-47
2021/09/28 03:10:26;;;;;;;9.50;5.60;;;11.20;84.10;;;;;;1900413;75;21420;-49
2021/09/28 03:12:55;;;;;;;13.15;6.17;;;11.20;84.00;;;;;;1858053;76;21102;-50
2021/09/28 03:15:25;;;;;;;11.15;5.87;;;11.10;84.20;;;;;;1900431;74;21017;-48
2021/09/28 03:17:54;;;;;;;13.65;5.92;;;11.20;84.30;;;;;;1858176;77;21099;-48
2021/09/28 03:20:24;;;;;;;11.35;6.12;;;11.20;84.50;;;;;;1858212;77;21029;-48
2021/09/28 03:22:53;;;;;;;8.93;6.30;;;11.30;84.70;;;;;;1900414;75;21026;-48
2021/09/28 03:25:23;;;;;;;6.30;5.25;;;11.30;84.60;;;;;;1858110;77;21116;-46
2021/09/28 03:27:53;;;;;;;10.50;6.03;;;11.30;84.40;;;;;;1840083;76;21034;-50
2021/09/28 03:30:23;;;;;;;14.83;6.87;;;11.30;84.50;;;;;;1837232;78;21093;-49
2021/09/28 03:32:52;;;;;;;12.90;6.78;;;11.30;84.60;;;;;;1837287;76;21050;-48
2021/09/28 03:35:22;;;;;;;18.00;15.93;;;11.40;84.50;;;;;;1837266;78;21030;-49
2021/09/28 03:37:53;;;;;;;61.28;41.45;;;11.40;84.50;;;;;;1837237;77;21065;-47
2021/09/28 03:40:22;;;;;;;38.28;30.02;;;11.40;84.40;;;;;;1824829;79;21031;-49
2021/09/28 03:42:52;;;;;;;40.20;30.37;;;11.30;84.30;;;;;;1824754;79;21047;-51
2021/09/28 03:45:21;;;;;;;40.10;30.80;;;11.30;84.50;;;;;;1824739;78;21153;-46
2021/09/28 03:47:51;;;;;;;49.42;30.65;;;11.30;84.60;;;;;;1824730;79;21168;-47
2021/09/28 03:50:20;;;;;;;31.93;22.40;;;11.30;84.60;;;;;;1824701;79;21039;-49
2021/09/28 03:52:49;;;;;;;31.70;21.50;;;11.30;84.50;;;;;;1824797;79;21527;-47
2021/09/28 03:55:22;;;;;;;27.48;18.62;;;11.30;84.70;;;;;;1824720;79;21083;-50
2021/09/28 03:57:53;;;;;;;23.18;16.23;;;11.30;84.20;;;;;;1824817;79;21094;-47
2021/09/28 04:00:23;;;;;;;20.97;11.80;;;11.30;84.30;;;;;;1824710;79;21058;-47
2021/09/28 04:02:53;;;;;;;16.75;10.38;;;11.20;84.20;;;;;;1824735;79;21150;-49
2021/09/28 04:05:22;;;;;;;15.25;8.73;;;11.20;84.70;;;;;;1824698;78;21043;-46
2021/09/28 04:07:52;;;;;;;17.45;9.15;;;11.20;84.90;;;;;;1824721;79;21118;-47
2021/09/28 04:10:21;;;;;;;20.90;8.98;;;11.30;84.80;;;;;;1824787;79;21098;-47
2021/09/28 04:12:51;;;;;;;21.65;10.30;;;11.30;84.70;;;;;;1824708;79;21357;-50
2021/09/28 04:15:24;;;;;;;20.25;10.30;;;11.30;84.30;;;;;;1824636;79;21043;-50
2021/09/28 04:17:52;;;;;;;16.05;9.45;;;11.20;83.90;;;;;;1824576;78;21094;-48
2021/09/28 04:20:21;;;;;;;14.83;9.70;;;11.10;84.00;;;;;;1824836;79;21130;-49
2021/09/28 04:22:52;;;;;;;19.50;10.40;;;11.10;84.70;;;;;;1823116;78;21099;-50
2021/09/28 04:25:22;;;;;;;39.78;20.08;;;11.10;85.20;;;;;;1824694;79;21184;-49
2021/09/28 04:27:52;;;;;;;16.42;9.98;;;11.20;85.40;;;;;;1824515;78;21047;-49
2021/09/28 04:30:22;;;;;;;19.30;9.95;;;11.30;85.30;;;;;;1824713;79;21173;-49
2021/09/28 04:32:51;;;;;;;16.27;9.65;;;11.30;85.00;;;;;;1824652;79;21105;-50
2021/09/28 04:35:21;;;;;;;16.17;9.23;;;11.30;84.80;;;;;;1824618;79;21106;-48
2021/09/28 04:37:50;;;;;;;15.95;9.05;;;11.40;85.30;;;;;;1824715;79;21047;-51
2021/09/28 04:40:20;;;;;;;19.42;8.98;;;11.50;85.60;;;;;;1824618;79;21024;-50
2021/09/28 04:42:49;;;;;;;23.05;9.68;;;11.60;85.80;;;;;;1824704;79;21043;-49
2021/09/28 04:45:19;;;;;;;16.02;9.70;;;11.70;85.60;;;;;;1824696;79;21015;-46
2021/09/28 04:47:48;;;;;;;20.40;10.48;;;11.80;85.60;;;;;;1824696;79;21051;-51
2021/09/28 04:50:18;;;;;;;17.75;9.68;;;11.90;85.60;;;;;;1824736;79;21053;-47
2021/09/28 04:52:47;;;;;;;17.90;9.25;;;12.00;85.40;;;;;;1825006;78;21047;-49
2021/09/28 04:55:16;;;;;;;14.38;8.30;;;12.10;85.40;;;;;;1824958;79;21044;-50
2021/09/28 04:57:46;;;;;;;16.77;10.80;;;12.20;85.20;;;;;;1824819;79;21118;-47
2021/09/28 05:00:16;;;;;;;13.95;9.30;;;12.30;84.80;;;;;;1824794;79;21109;-50
2021/09/28 05:02:45;;;;;;;20.00;9.93;;;12.30;84.40;;;;;;1824854;79;21082;-47
2021/09/28 05:05:15;;;;;;;25.50;11.40;;;12.30;83.90;;;;;;1824827;78;21035;-48
2021/09/28 05:07:44;;;;;;;21.25;10.58;;;12.40;84.00;;;;;;1824756;79;21059;-49
2021/09/28 05:10:14;;;;;;;22.93;12.50;;;12.40;83.80;;;;;;1824857;79;21047;-50
2021/09/28 05:12:43;;;;;;;17.92;10.30;;;12.40;83.40;;;;;;1824802;79;21121;-49
2021/09/28 05:15:13;;;;;;;23.90;11.03;;;12.40;83.90;;;;;;1824856;79;21055;-47
2021/09/28 05:17:42;;;;;;;19.60;10.53;;;12.40;83.70;;;;;;1824850;79;21047;-48
2021/09/28 05:20:12;;;;;;;19.25;9.48;;;12.50;84.30;;;;;;1824788;79;21035;-49
2021/09/28 05:22:41;;;;;;;22.35;11.03;;;12.60;83.60;;;;;;1824852;79;21106;-50
2021/09/28 05:25:11;;;;;;;20.15;10.48;;;12.70;83.50;;;;;;1824850;79;21047;-50
2021/09/28 05:27:41;;;;;;;27.15;14.15;;;12.70;82.70;;;;;;1825245;78;21040;-49
2021/09/28 05:30:10;;;;;;;25.12;14.95;;;12.70;82.60;;;;;;1884852;76;21031;-47
2021/09/28 05:32:40;;;;;;;16.77;11.18;;;12.60;82.20;;;;;;1884701;76;21039;-50
2021/09/28 05:35:09;;;;;;;23.00;10.85;;;12.50;82.10;;;;;;1884690;76;21022;-50
2021/09/28 05:37:39;;;;;;;19.37;13.13;;;12.40;82.40;;;;;;1884806;75;21011;-50
2021/09/28 05:40:09;;;;;;;23.40;13.68;;;12.40;82.70;;;;;;1884767;76;21051;-49
2021/09/28 05:42:38;;;;;;;19.42;11.85;;;12.40;82.40;;;;;;1884753;76;21006;-50
2021/09/28 05:45:09;;;;;;;31.30;14.18;;;12.40;82.30;;;;;;1884609;76;21088;-49
2021/09/28 05:47:38;;;;;;;22.75;11.28;;;12.40;82.50;;;;;;1884655;75;20999;-48
2021/09/28 05:50:09;;;;;;;16.60;10.20;;;12.40;82.50;;;;;;1884743;75;21043;-49
2021/09/28 05:52:38;;;;;;;19.25;10.82;;;12.40;82.50;;;;;;1884753;76;21007;-49
2021/09/28 05:55:08;;;;;;;22.10;10.80;;;12.50;82.70;;;;;;1884752;76;21015;-50
2021/09/28 05:57:38;;;;;;;33.05;14.30;;;12.50;82.70;;;;;;1884905;76;21022;-48
2021/09/28 06:00:10;;;;;;;31.40;12.63;;;12.60;82.60;;;;;;1884781;76;21149;-47
2021/09/28 06:02:45;;;;;;;22.67;12.28;;;12.60;82.50;;;;;;1884667;76;21022;-47
2021/09/28 06:05:15;;;;;;;29.25;12.30;;;12.70;82.60;;;;;;1884669;76;21088;-48
2021/09/28 06:07:44;;;;;;;19.65;11.88;;;12.70;82.60;;;;;;1884901;76;21027;-49
2021/09/28 06:10:14;;;;;;;21.75;11.75;;;12.80;82.70;;;;;;1884839;76;21022;-50
2021/09/28 06:12:43;;;;;;;22.58;12.35;;;12.90;82.50;;;;;;1884900;76;21461;-50
2021/09/28 06:15:13;;;;;;;18.37;10.55;;;12.90;82.50;;;;;;1884843;76;21019;-50
2021/09/28 06:17:42;;;;;;;37.05;26.52;;;13.00;82.40;;;;;;1884815;76;21045;-48
2021/09/28 06:20:12;;;;;;;17.45;12.20;;;13.10;81.70;;;;;;1884614;76;21340;-51
2021/09/28 06:22:41;;;;;;;19.48;10.72;;;13.20;81.20;;;;;;1884681;76;21038;-50
2021/09/28 06:25:12;;;;;;;16.42;9.78;;;13.20;80.90;;;;;;1884701;76;21073;-49
2021/09/28 06:27:42;;;;;;;15.63;8.58;;;13.30;80.80;;;;;;1884659;76;21094;-48
2021/09/28 06:30:12;;;;;;;19.10;14.18;;;13.30;81.10;;;;;;1874460;76;21055;-50
2021/09/28 06:32:41;;;;;;;11.05;8.68;;;13.40;81.30;;;;;;1872417;77;21007;-50
2021/09/28 06:35:11;;;;;;;16.67;9.70;;;13.50;81.20;;;;;;1837212;76;21046;-49
2021/09/28 06:37:40;;;;;;;13.18;9.53;;;13.60;81.10;;;;;;1837325;78;21124;-48
2021/09/28 06:40:10;;;;;;;15.88;9.85;;;13.70;81.00;;;;;;1837334;77;21095;-51
2021/09/28 06:42:40;;;;;;;8.88;7.60;;;13.80;80.50;;;;;;1837265;78;21026;-50
2021/09/28 06:45:10;;;;;;;12.82;9.15;;;13.80;80.40;;;;;;1837317;78;21034;-51
2021/09/28 06:47:40;;;;;;;14.35;9.55;;;13.90;79.00;;;;;;1837168;77;21183;-50
2021/09/28 06:50:09;;;;;;;14.35;8.60;;;13.90;79.50;;;;;;1837400;78;21034;-49
2021/09/28 06:52:40;;;;;;;12.82;6.78;;;14.00;80.00;;;;;;1837297;77;21026;-48
2021/09/28 06:55:10;;;;;;;12.58;7.97;;;14.00;79.30;;;;;;1837306;77;21054;-48
2021/09/28 06:57:39;;;;;;;11.20;7.55;;;14.00;79.30;;;;;;1837154;78;21096;-51
2021/09/28 07:00:09;;;;;;;13.13;7.45;;;14.10;79.20;;;;;;1837179;76;21010;-47
2021/09/28 07:02:38;;;;;;;11.08;7.30;;;14.20;78.90;;;;;;1837234;77;21026;-51
2021/09/28 07:05:14;;;;;;;8.80;6.60;;;14.30;78.30;;;;;;1837330;78;21148;-48
2021/09/28 07:07:39;;;;;;;14.47;6.92;;;14.30;78.30;;;;;;1836002;77;21034;-50
2021/09/28 07:10:09;;;;;;;11.90;7.17;;;14.40;77.70;;;;;;1837247;76;21022;-47
2021/09/28 07:12:39;;;;;;;10.55;6.87;;;14.40;77.30;;;;;;1837173;78;21034;-51
2021/09/28 07:15:10;;;;;;;10.53;7.15;;;14.50;77.70;;;;;;1837421;77;21029;-51
2021/09/28 07:17:40;;;;;;;12.63;7.72;;;14.50;76.80;;;;;;1837310;76;21065;-49
2021/09/28 07:20:09;;;;;;;10.48;8.30;;;14.60;76.90;;;;;;1837324;78;21038;-49
2021/09/28 07:22:39;;;;;;;9.80;6.42;;;14.60;77.00;;;;;;1837244;76;21539;-49
2021/09/28 07:25:08;;;;;;;14.10;6.42;;;14.70;76.40;;;;;;1837175;77;21038;-49
2021/09/28 07:27:38;;;;;;;11.28;6.47;;;14.70;75.80;;;;;;1837263;78;21038;-49
2021/09/28 07:30:08;;;;;;;14.25;7.25;;;14.80;76.20;;;;;;1837252;77;21061;-48
2021/09/28 07:32:37;;;;;;;11.50;6.80;;;14.90;76.00;;;;;;1837276;77;21116;-48
2021/09/28 07:35:07;;;;;;;8.78;5.75;;;15.00;75.80;;;;;;1837061;77;21042;-51
2021/09/28 07:37:37;;;;;;;9.80;6.05;;;15.00;75.00;;;;;;1835865;76;21179;-50
2021/09/28 07:40:07;;;;;;;8.48;5.87;;;15.10;75.90;;;;;;1833740;77;21113;-50
2021/09/28 07:42:36;;;;;;;8.13;5.05;;;15.20;76.60;;;;;;1835026;78;21039;-49
2021/09/28 07:45:07;;;;;;;11.15;6.28;;;15.30;77.00;;;;;;1834765;78;21126;-49
2021/09/28 07:47:36;;;;;;;5.87;4.58;;;15.50;75.70;;;;;;1784818;79;21053;-47
2021/09/28 07:50:07;;;;;;;5.55;4.17;;;15.60;74.80;;;;;;1852104;77;21544;-49
2021/09/28 07:52:36;;;;;;;7.45;4.78;;;15.60;72.90;;;;;;1831601;78;21046;-49
2021/09/28 07:55:06;;;;;;;8.28;5.17;;;15.60;73.80;;;;;;1830470;78;21073;-47
2021/09/28 07:57:35;;;;;;;5.08;4.20;;;15.70;73.40;;;;;;1830357;78;21042;-49
2021/09/28 08:00:06;;;;;;;8.43;5.03;;;15.80;73.30;;;;;;1831363;78;21208;-49
2021/09/28 08:02:39;;;;;;;7.62;4.87;;;15.80;73.50;;;;;;1840413;77;21059;-52
2021/09/28 08:05:09;;;;;;;6.20;4.28;;;15.90;71.90;;;;;;1859642;75;21063;-52
2021/09/28 08:07:39;;;;;;;6.55;5.37;;;16.00;70.90;;;;;;1845708;77;21100;-52
2021/09/28 08:10:10;;;;;;;10.82;5.22;;;16.00;70.10;;;;;;1857906;77;21001;-53
2021/09/28 08:12:39;;;;;;;5.67;3.85;;;16.00;71.20;;;;;;1870598;77;21060;-50
2021/09/28 08:15:09;;;;;;;6.90;4.80;;;16.00;68.70;;;;;;1869127;77;21077;-52
2021/09/28 08:17:39;;;;;;;6.42;4.28;;;16.10;68.50;;;;;;1836524;77;21066;-50
2021/09/28 08:20:10;;;;;;;7.08;5.10;;;16.10;69.60;;;;;;1831987;77;21089;-53
2021/09/28 08:22:40;;;;;;;7.85;5.40;;;16.20;68.20;;;;;;1830438;78;21541;-53
2021/09/28 08:25:13;;;;;;;8.00;5.87;;;16.20;69.00;;;;;;1831192;78;21041;-53
2021/09/28 08:30:29;;;;;;;6.40;4.47;;;16.20;68.10;;;;;;1832030;78;21171;-52
2021/09/28 08:32:59;;;;;;;5.72;4.50;;;16.20;67.20;;;;;;1832031;78;21043;-52
2021/09/28 08:35:28;;;;;;;3.90;3.60;;;16.30;66.10;;;;;;1832004;78;21038;-52
2021/09/28 08:37:58;;;;;;;5.78;4.78;;;16.30;64.30;;;;;;1832210;78;21118;-53
2021/09/28 08:40:27;;;;;;;4.53;4.05;;;16.30;63.50;;;;;;1832046;77;21112;-51
2021/09/28 08:42:56;;;;;;;4.37;3.70;;;16.30;63.90;;;;;;1832119;78;21481;-53
2021/09/28 08:45:25;;;;;;;5.78;4.70;;;16.40;64.80;;;;;;1832116;78;21047;-53
2021/09/28 08:47:55;;;;;;;5.15;4.22;;;16.50;64.40;;;;;;1832097;78;21144;-52
2021/09/28 08:50:24;;;;;;;6.00;4.70;;;16.50;63.90;;;;;;1832026;78;21062;-53
2021/09/28 08:52:54;;;;;;;5.20;4.60;;;16.50;64.10;;;;;;1832091;78;21082;-52
2021/09/28 08:55:24;;;;;;;5.12;4.10;;;16.60;64.30;;;;;;1832088;78;21109;-52
2021/09/28 08:57:56;;;;;;;5.67;3.90;;;16.60;64.00;;;;;;1831951;78;21151;-53
2021/09/28 09:00:26;;;;;;;5.87;4.67;;;16.60;62.10;;;;;;1826898;78;21066;-53
2021/09/28 09:02:55;;;;;;;4.78;4.00;;;16.70;62.50;;;;;;1832001;78;21038;-52
2021/09/28 09:05:26;;;;;;;4.75;4.22;;;16.70;62.00;;;;;;1831958;78;21046;-53
2021/09/28 09:08:01;;;;;;;5.70;4.60;;;16.70;63.10;;;;;;1831857;77;21109;-53
2021/09/28 09:10:33;;;;;;;5.47;4.85;;;16.80;63.00;;;;;;1832139;78;21104;-53
2021/09/28 09:13:02;;;;;;;5.45;3.98;;;16.80;62.60;;;;;;1831997;78;21042;-53
2021/09/28 09:15:34;;;;;;;5.22;4.70;;;16.90;61.60;;;;;;1831939;78;21034;-53
2021/09/28 09:18:05;;;;;;;5.80;5.30;;;16.80;61.00;;;;;;1832055;78;21050;-52
2021/09/28 09:20:43;;;;;;;6.00;4.87;;;16.90;61.90;;;;;;1832088;78;21548;-53
2021/09/28 09:23:32;;;;;;;9.20;4.78;;;17.00;62.20;;;;;;1832117;78;21116;-53
2021/09/28 09:26:02;;;;;;;;;;;17.00;61.60;;;;;;1834027;78;21079;-53
2021/09/28 09:28:33;;;;;;;7.80;4.20;;;17.10;59.60;;;;;;1832095;78;20112;-52
2021/09/28 09:31:11;;;;;;;4.97;4.12;;;17.10;62.00;;;;;;1837189;78;21046;-53
2021/09/28 09:33:43;;;;;;;4.03;3.62;;;17.10;61.10;;;;;;1843515;78;21073;-51
2021/09/28 09:36:17;;;;;;;5.53;4.92;;;17.20;60.70;;;;;;1843324;77;21007;-52
2021/09/28 09:38:52;;;;;;;4.33;3.35;;;17.20;60.80;;;;;;1843443;78;21120;-52
2021/09/28 09:41:24;;;;;;;6.33;4.45;;;17.20;60.50;;;;;;1843868;78;21124;-51
2021/09/28 09:44:02;;;;;;;5.72;4.05;;;17.30;60.70;;;;;;1843696;77;21066;-53
2021/09/28 09:46:46;;;;;;;4.85;4.28;;;17.30;60.00;;;;;;1843863;78;21006;-51
2021/09/28 09:49:18;;;;;;;5.00;4.30;;;17.20;59.50;;;;;;1843815;77;21112;-52
2021/09/28 09:51:50;;;;;;;4.90;2.95;;;17.30;59.50;;;;;;1843637;78;21058;-52
2021/09/28 09:54:31;;;;;;;4.03;3.62;;;17.20;57.50;;;;;;1843739;78;21171;-52
2021/09/28 09:57:08;;;;;;;5.55;4.47;;;17.20;59.10;;;;;;1843711;78;21226;-54
2021/09/28 09:59:35;;;;;;;5.42;3.95;;;17.20;59.60;;;;;;1842774;78;21109;-54
2021/09/28 10:02:05;;;;;;;4.22;3.30;;;17.30;59.50;;;;;;1843627;78;21057;-52
2021/09/28 10:04:35;;;;;;;4.67;4.25;;;17.40;57.60;;;;;;1843751;78;21252;-54
2021/09/28 10:07:05;;;;;;;6.00;3.77;;;17.50;58.20;;;;;;1843658;77;21034;-54
2021/09/28 10:09:42;;;;;;;13.58;4.05;;;17.70;58.00;;;;;;1843678;78;21353;-53
2021/09/28 10:12:09;;;;;;;8.35;6.53;;;17.80;57.90;;;;;;1842735;78;21057;-54
2021/09/28 10:14:41;;;;;;;4.50;4.03;;;17.80;57.60;;;;;;1843727;78;21038;-54
2021/09/28 10:17:28;;;;;;;4.37;3.98;;;17.80;57.30;;;;;;1843544;78;21504;-53
2021/09/28 10:20:03;;;;;;;5.20;4.12;;;17.90;57.90;;;;;;1843679;77;21066;-52
2021/09/28 10:22:39;;;;;;;7.85;4.60;;;17.90;56.80;;;;;;1843799;78;21116;-53
2021/09/28 10:25:23;;;;;;;3.70;3.33;;;17.80;57.30;;;;;;1843717;78;21037;-53
2021/09/28 10:27:54;;;;;;;5.60;3.72;;;17.70;57.50;;;;;;1844045;78;21031;-53
2021/09/28 10:30:38;;;;;;;3.15;2.65;;;17.70;57.40;;;;;;1843730;77;21096;-53
2021/09/28 10:33:14;;;;;;;5.20;4.43;;;17.70;55.50;;;;;;1844058;78;21074;-52
2021/09/28 10:36:13;;;;;;;4.03;3.47;;;17.70;57.20;;;;;;1841609;78;21203;-52
2021/09/28 10:38:54;;;;;;;4.50;3.60;;;17.80;56.60;;;;;;1843651;77;21100;-54
2021/09/28 10:41:44;;;;;;;4.20;3.80;;;17.90;54.20;;;;;;1843738;78;21038;-53
2021/09/28 10:44:40;;;;;;;4.35;3.85;;;17.90;53.50;;;;;;1843702;78;21038;-52
2021/09/28 10:47:05;;;;;;;4.45;3.22;;;17.80;53.60;;;;;;1842694;76;21160;-52
2021/09/28 10:49:39;;;;;;;4.97;3.80;;;17.80;53.80;;;;;;1843778;78;21100;-52
2021/09/28 10:52:27;;;;;;;4.87;3.60;;;17.70;53.80;;;;;;1843970;78;21112;-53
2021/09/28 10:55:11;;;;;;;3.33;2.85;;;17.70;53.60;;;;;;1843791;78;21491;-52
2021/09/28 10:58:01;;;;;;;6.00;3.95;;;17.60;52.20;;;;;;1843906;76;21026;-53
2021/09/28 11:00:32;;;;;;;5.70;3.60;;;17.50;53.20;;;;;;1843771;77;21066;-54
2021/09/28 11:03:01;;;;;;;3.52;3.22;;;17.50;53.80;;;;;;1834680;78;21496;-54
2021/09/28 11:05:33;;;;;;;3.45;3.15;;;17.40;52.80;;;;;;1843718;78;21112;-52
2021/09/28 11:08:03;;;;;;;2.62;2.42;;;17.50;52.10;;;;;;1843620;77;21100;-54
2021/09/28 11:10:35;;;;;;;3.40;3.10;;;17.50;50.30;;;;;;1843787;78;21034;-53
2021/09/28 11:13:10;;;;;;;3.30;3.08;;;17.60;50.70;;;;;;1843782;78;21054;-53
2021/09/28 11:15:40;;;;;;;4.25;3.70;;;17.70;51.10;;;;;;1843898;78;21156;-52
2021/09/28 11:18:10;;;;;;;2.85;2.58;;;17.80;51.50;;;;;;1843737;78;21042;-53
2021/09/28 11:20:40;;;;;;;4.17;3.50;;;17.80;50.70;;;;;;1843629;78;21038;-53
2021/09/28 11:23:12;;;;;;;3.58;3.27;;;17.90;51.20;;;;;;1843701;78;21030;-55
2021/09/28 11:25:49;;;;;;;3.37;3.15;;;18.00;49.60;;;;;;1843742;78;21155;-54
2021/09/28 11:28:21;;;;;;;5.20;3.50;;;18.00;50.00;;;;;;1843761;78;21476;-53
2021/09/28 11:30:58;;;;;;;4.15;3.55;;;18.00;50.20;;;;;;1843785;78;21512;-54
2021/09/28 11:33:29;;;;;;;6.47;3.42;;;18.10;50.60;;;;;;1843778;78;21058;-54
2021/09/28 11:36:07;;;;;;;4.28;3.30;;;18.10;51.00;;;;;;1843823;78;21128;-54
2021/09/28 11:38:39;;;;;;;3.70;3.30;;;18.20;50.90;;;;;;1843637;78;21127;-53
2021/09/28 11:41:11;;;;;;;3.35;2.75;;;18.20;50.60;;;;;;1843741;78;21038;-54
2021/09/28 11:43:41;;;;;;;3.85;3.30;;;18.20;50.60;;;;;;1843711;78;21112;-53
2021/09/28 11:46:15;;;;;;;6.55;3.83;;;18.30;50.10;;;;;;1843758;78;21034;-55
2021/09/28 11:48:48;;;;;;;3.25;2.70;;;18.30;50.50;;;;;;1843795;78;21100;-55
2021/09/28 11:51:28;;;;;;;5.05;4.10;;;18.40;48.70;;;;;;1843703;78;21023;-54
2021/09/28 11:53:49;;;;;;;7.47;5.25;;;18.40;49.10;;;;;;1840260;78;21046;-54
2021/09/28 11:56:21;;;;;;;8.80;5.87;;;18.40;48.70;;;;;;1843738;78;21014;-55
2021/09/28 11:58:52;;;;;;;4.92;4.42;;;18.20;49.20;;;;;;1843748;77;21100;-54
2021/09/28 12:01:22;;;;;;;4.30;3.90;;;18.10;49.20;;;;;;1843668;78;21042;-54
2021/09/28 12:07:04;;;;;;;6.67;4.22;;;17.90;49.00;;;;;;1843781;77;21053;-54
2021/09/28 12:09:42;;;;;;;25.12;18.12;;;18.00;50.20;;;;;;1843830;77;21058;-53
2021/09/28 12:12:16;;;;;;;19.23;12.73;;;18.10;50.40;;;;;;1843703;78;21018;-52
2021/09/28 12:14:48;;;;;;;25.17;17.03;;;18.20;49.40;;;;;;1843946;76;21089;-53
2021/09/28 12:17:23;;;;;;;16.52;11.50;;;18.30;49.50;;;;;;1843189;78;21045;-52
2021/09/28 12:20:03;;;;;;;28.30;23.25;;;18.30;47.80;;;;;;1843787;78;21026;-53
2021/09/28 12:22:35;;;;;;;17.57;15.58;;;18.30;48.70;;;;;;1843589;77;21030;-53
2021/09/28 12:25:07;;;;;;;17.75;16.00;;;18.30;48.70;;;;;;1843735;78;21381;-53
2021/09/28 12:27:37;;;;;;;25.68;23.42;;;18.20;49.00;;;;;;1843348;78;21105;-51
2021/09/28 12:30:10;;;;;;;11.85;10.48;;;18.10;49.80;;;;;;1843699;78;21143;-53
2021/09/28 12:32:40;;;;;;;9.13;7.30;;;18.00;50.30;;;;;;1843679;77;21147;-54
2021/09/28 12:35:14;;;;;;;12.13;11.18;;;17.90;49.40;;;;;;1843802;78;21484;-54
2021/09/28 12:37:49;;;;;;;9.25;8.55;;;17.80;49.60;;;;;;1843883;76;21102;-54
2021/09/28 12:40:21;;;;;;;7.97;6.53;;;17.70;49.10;;;;;;1843667;76;21026;-53
2021/09/28 12:43:05;;;;;;;6.47;5.90;;;17.70;50.20;;;;;;1843618;78;21026;-54
2021/09/28 12:45:56;;;;;;;5.30;4.40;;;17.70;50.20;;;;;;1843646;78;20999;-54
2021/09/28 12:48:38;;;;;;;3.70;3.40;;;17.80;50.00;;;;;;1843676;78;21149;-54
2021/09/28 12:51:12;;;;;;;3.62;3.33;;;17.80;49.30;;;;;;1843776;78;20998;-54
2021/09/28 12:53:41;;;;;;;6.08;4.42;;;17.90;49.20;;;;;;1843837;76;21441;-52
2021/09/28 12:56:10;;;;;;;4.42;4.03;;;18.00;50.00;;;;;;1843785;78;21038;-53
2021/09/28 12:58:40;;;;;;;5.95;4.15;;;18.00;49.60;;;;;;1843709;78;21215;-51
2021/09/28 13:01:10;;;;;;;4.97;3.98;;;18.10;50.10;;;;;;1843555;78;21101;-52
2021/09/28 13:03:39;;;;;;;6.75;4.15;;;18.10;50.20;;;;;;1843737;78;21031;-53
2021/09/28 13:06:11;;;;;;;6.25;5.35;;;18.10;49.30;;;;;;1843587;78;21542;-52